sensor_id;sensor_type;location;lat;lon;timestamp;P1;durP1;ratioP1;P2;durP2;ratioP2
4353;SDS011;11018;51.258;6.806;2024-01-10T00:01:31;14.63;;;10.05;;
4353;SDS011;11018;51.258;6.806;2024-01-10T00:03:57;17.73;;;10.85;;
4353;SDS011;11018;51.258;6.806;2024-01-10T00:06:23;16.70;;;10.93;;
4353;SDS011;11018;51.258;6.806;2024-01-10T00:08:49;16.65;;;10.40;;
4353;SDS011;11018;51.258;6.806;2024-01-10T00:11:15;17.73;;;10.35;;
4353;SDS011;11018;51.258;6.806;2024-01-10T00:13:40;16.30;;;10.30;;
4353;SDS011;11018;51.258;6.806;2024-01-10T00:16:06;15.95;;;10.30;;
4353;SDS011;11018;51.258;6.806;2024-01-10T00:18:32;16.13;;;10.63;;
4353;SDS011;11018;51.258;6.806;2024-01-10T00:20:58;16.65;;;10.73;;
4353;SDS011;11018;51.258;6.806;2024-01-10T00:23:23;15.80;;;10.27;;
4353;SDS011;11018;51.258;6.806;2024-01-10T00:25:49;16.77;;;10.97;;
4353;SDS011;11018;51.258;6.806;2024-01-10T00:28:14;16.33;;;10.27;;
4353;SDS011;11018;51.258;6.806;2024-01-10T00:30:43;18.77;;;10.73;;
4353;SDS011;11018;51.258;6.806;2024-01-10T00:33:13;15.38;;;10.25;;
4353;SDS011;11018;51.258;6.806;2024-01-10T00:35:39;17.67;;;10.50;;
4353;SDS011;11018;51.258;6.806;2024-01-10T00:38:04;15.77;;;10.93;;
4353;SDS011;11018;51.258;6.806;2024-01-10T00:40:30;17.13;;;10.52;;
4353;SDS011;11018;51.258;6.806;2024-01-10T00:42:56;15.43;;;10.60;;
4353;SDS011;11018;51.258;6.806;2024-01-10T00:45:21;17.92;;;10.70;;
4353;SDS011;11018;51.258;6.806;2024-01-10T00:47:50;15.73;;;9.90;;
4353;SDS011;11018;51.258;6.806;2024-01-10T00:50:16;14.57;;;10.38;;
4353;SDS011;11018;51.258;6.806;2024-01-10T00:52:42;17.77;;;10.93;;
4353;SDS011;11018;51.258;6.806;2024-01-10T00:55:09;15.77;;;11.05;;
4353;SDS011;11018;51.258;6.806;2024-01-10T00:57:34;18.13;;;11.07;;
4353;SDS011;11018;51.258;6.806;2024-01-10T01:00:00;15.68;;;10.10;;
4353;SDS011;11018;51.258;6.806;2024-01-10T01:02:25;17.67;;;10.60;;
4353;SDS011;11018;51.258;6.806;2024-01-10T01:04:51;15.90;;;10.20;;
4353;SDS011;11018;51.258;6.806;2024-01-10T01:07:17;16.48;;;10.70;;
4353;SDS011;11018;51.258;6.806;2024-01-10T01:09:43;17.95;;;10.55;;
4353;SDS011;11018;51.258;6.806;2024-01-10T01:12:08;16.40;;;10.87;;
4353;SDS011;11018;51.258;6.806;2024-01-10T01:14:34;17.57;;;10.10;;
4353;SDS011;11018;51.258;6.806;2024-01-10T01:16:59;17.45;;;10.48;;
4353;SDS011;11018;51.258;6.806;2024-01-10T01:19:25;15.50;;;10.53;;
4353;SDS011;11018;51.258;6.806;2024-01-10T01:21:50;16.37;;;10.03;;
4353;SDS011;11018;51.258;6.806;2024-01-10T01:24:16;15.80;;;10.45;;
4353;SDS011;11018;51.258;6.806;2024-01-10T01:26:41;15.33;;;9.80;;
4353;SDS011;11018;51.258;6.806;2024-01-10T01:29:07;14.83;;;9.70;;
4353;SDS011;11018;51.258;6.806;2024-01-10T01:31:33;17.53;;;10.00;;
4353;SDS011;11018;51.258;6.806;2024-01-10T01:33:59;19.40;;;9.73;;
4353;SDS011;11018;51.258;6.806;2024-01-10T01:36:25;15.50;;;9.97;;
4353;SDS011;11018;51.258;6.806;2024-01-10T01:38:50;17.40;;;10.30;;
4353;SDS011;11018;51.258;6.806;2024-01-10T01:41:16;15.30;;;10.40;;
4353;SDS011;11018;51.258;6.806;2024-01-10T01:43:42;15.02;;;9.80;;
4353;SDS011;11018;51.258;6.806;2024-01-10T01:46:08;15.90;;;9.53;;
4353;SDS011;11018;51.258;6.806;2024-01-10T01:48:34;16.58;;;10.30;;
4353;SDS011;11018;51.258;6.806;2024-01-10T01:51:01;16.27;;;10.03;;
4353;SDS011;11018;51.258;6.806;2024-01-10T01:53:30;14.47;;;10.10;;
4353;SDS011;11018;51.258;6.806;2024-01-10T01:55:57;15.55;;;10.43;;
4353;SDS011;11018;51.258;6.806;2024-01-10T01:58:24;17.42;;;10.57;;
4353;SDS011;11018;51.258;6.806;2024-01-10T02:00:51;16.55;;;10.68;;
4353;SDS011;11018;51.258;6.806;2024-01-10T02:03:17;16.38;;;10.50;;
4353;SDS011;11018;51.258;6.806;2024-01-10T02:05:43;15.07;;;9.80;;
4353;SDS011;11018;51.258;6.806;2024-01-10T02:08:08;15.00;;;9.57;;
4353;SDS011;11018;51.258;6.806;2024-01-10T02:10:34;15.45;;;9.80;;
4353;SDS011;11018;51.258;6.806;2024-01-10T02:13:00;15.55;;;9.80;;
4353;SDS011;11018;51.258;6.806;2024-01-10T02:15:26;16.15;;;9.57;;
4353;SDS011;11018;51.258;6.806;2024-01-10T02:17:52;15.00;;;9.77;;
4353;SDS011;11018;51.258;6.806;2024-01-10T02:20:17;14.57;;;10.02;;
4353;SDS011;11018;51.258;6.806;2024-01-10T02:22:43;13.20;;;9.60;;
4353;SDS011;11018;51.258;6.806;2024-01-10T02:25:09;12.30;;;8.90;;
4353;SDS011;11018;51.258;6.806;2024-01-10T02:27:36;17.05;;;10.10;;
4353;SDS011;11018;51.258;6.806;2024-01-10T02:30:02;12.70;;;8.77;;
4353;SDS011;11018;51.258;6.806;2024-01-10T02:32:29;16.03;;;10.03;;
4353;SDS011;11018;51.258;6.806;2024-01-10T02:34:55;16.00;;;10.50;;
4353;SDS011;11018;51.258;6.806;2024-01-10T02:37:20;16.47;;;9.77;;
4353;SDS011;11018;51.258;6.806;2024-01-10T02:39:46;15.73;;;9.70;;
4353;SDS011;11018;51.258;6.806;2024-01-10T02:42:11;15.48;;;9.75;;
4353;SDS011;11018;51.258;6.806;2024-01-10T02:44:37;13.87;;;9.60;;
4353;SDS011;11018;51.258;6.806;2024-01-10T02:47:02;13.93;;;9.60;;
4353;SDS011;11018;51.258;6.806;2024-01-10T02:49:28;15.93;;;10.00;;
4353;SDS011;11018;51.258;6.806;2024-01-10T02:51:54;17.07;;;10.27;;
4353;SDS011;11018;51.258;6.806;2024-01-10T02:54:19;15.80;;;10.18;;
4353;SDS011;11018;51.258;6.806;2024-01-10T02:56:45;15.17;;;9.13;;
4353;SDS011;11018;51.258;6.806;2024-01-10T02:59:11;16.03;;;10.50;;
4353;SDS011;11018;51.258;6.806;2024-01-10T03:01:36;14.40;;;10.00;;
4353;SDS011;11018;51.258;6.806;2024-01-10T03:04:02;15.07;;;9.27;;
4353;SDS011;11018;51.258;6.806;2024-01-10T03:06:28;15.60;;;9.90;;
4353;SDS011;11018;51.258;6.806;2024-01-10T03:08:54;16.10;;;9.77;;
4353;SDS011;11018;51.258;6.806;2024-01-10T03:11:20;16.25;;;9.90;;
4353;SDS011;11018;51.258;6.806;2024-01-10T03:13:46;15.83;;;10.10;;
4353;SDS011;11018;51.258;6.806;2024-01-10T03:16:12;16.67;;;10.10;;
4353;SDS011;11018;51.258;6.806;2024-01-10T03:18:39;14.97;;;9.90;;
4353;SDS011;11018;51.258;6.806;2024-01-10T03:21:04;15.73;;;9.68;;
4353;SDS011;11018;51.258;6.806;2024-01-10T03:23:30;16.70;;;10.77;;
4353;SDS011;11018;51.258;6.806;2024-01-10T03:25:56;15.02;;;10.23;;
4353;SDS011;11018;51.258;6.806;2024-01-10T03:28:22;17.80;;;10.60;;
4353;SDS011;11018;51.258;6.806;2024-01-10T03:30:48;16.38;;;10.15;;
4353;SDS011;11018;51.258;6.806;2024-01-10T03:33:14;16.73;;;10.57;;
4353;SDS011;11018;51.258;6.806;2024-01-10T03:35:40;19.20;;;11.90;;
4353;SDS011;11018;51.258;6.806;2024-01-10T03:38:06;17.08;;;10.60;;
4353;SDS011;11018;51.258;6.806;2024-01-10T03:40:32;16.17;;;10.80;;
4353;SDS011;11018;51.258;6.806;2024-01-10T03:42:58;16.63;;;11.23;;
4353;SDS011;11018;51.258;6.806;2024-01-10T03:45:23;18.83;;;10.02;;
4353;SDS011;11018;51.258;6.806;2024-01-10T03:47:49;17.30;;;10.75;;
4353;SDS011;11018;51.258;6.806;2024-01-10T03:50:19;17.10;;;10.70;;
4353;SDS011;11018;51.258;6.806;2024-01-10T03:52:45;17.38;;;11.30;;
4353;SDS011;11018;51.258;6.806;2024-01-10T03:55:14;16.43;;;10.70;;
4353;SDS011;11018;51.258;6.806;2024-01-10T03:57:40;15.55;;;10.40;;
4353;SDS011;11018;51.258;6.806;2024-01-10T04:00:07;15.13;;;9.90;;
4353;SDS011;11018;51.258;6.806;2024-01-10T04:02:33;16.20;;;10.57;;
4353;SDS011;11018;51.258;6.806;2024-01-10T04:05:01;18.25;;;11.05;;
4353;SDS011;11018;51.258;6.806;2024-01-10T04:07:27;15.80;;;10.07;;
4353;SDS011;11018;51.258;6.806;2024-01-10T04:09:53;16.08;;;9.70;;
4353;SDS011;11018;51.258;6.806;2024-01-10T04:12:18;14.97;;;9.90;;
4353;SDS011;11018;51.258;6.806;2024-01-10T04:14:44;17.33;;;10.60;;
4353;SDS011;11018;51.258;6.806;2024-01-10T04:17:09;15.53;;;10.30;;
4353;SDS011;11018;51.258;6.806;2024-01-10T04:19:35;15.68;;;10.48;;
4353;SDS011;11018;51.258;6.806;2024-01-10T04:22:01;15.25;;;9.95;;
4353;SDS011;11018;51.258;6.806;2024-01-10T04:24:26;13.80;;;9.90;;
4353;SDS011;11018;51.258;6.806;2024-01-10T04:26:52;18.00;;;11.00;;
4353;SDS011;11018;51.258;6.806;2024-01-10T04:29:17;16.55;;;10.10;;
4353;SDS011;11018;51.258;6.806;2024-01-10T04:31:43;16.97;;;10.07;;
4353;SDS011;11018;51.258;6.806;2024-01-10T04:34:08;17.08;;;10.20;;
4353;SDS011;11018;51.258;6.806;2024-01-10T04:36:34;16.95;;;10.35;;
4353;SDS011;11018;51.258;6.806;2024-01-10T04:39:00;15.93;;;10.13;;
4353;SDS011;11018;51.258;6.806;2024-01-10T04:41:25;18.10;;;10.57;;
4353;SDS011;11018;51.258;6.806;2024-01-10T04:43:51;21.52;;;11.38;;
4353;SDS011;11018;51.258;6.806;2024-01-10T04:46:16;18.30;;;10.50;;
4353;SDS011;11018;51.258;6.806;2024-01-10T04:48:42;16.63;;;10.30;;
4353;SDS011;11018;51.258;6.806;2024-01-10T04:51:08;17.33;;;10.57;;
4353;SDS011;11018;51.258;6.806;2024-01-10T04:53:33;16.80;;;10.38;;
4353;SDS011;11018;51.258;6.806;2024-01-10T04:55:59;19.83;;;10.98;;
4353;SDS011;11018;51.258;6.806;2024-01-10T04:58:25;16.97;;;10.27;;
4353;SDS011;11018;51.258;6.806;2024-01-10T05:00:51;15.25;;;10.02;;
4353;SDS011;11018;51.258;6.806;2024-01-10T05:03:16;15.33;;;10.43;;
4353;SDS011;11018;51.258;6.806;2024-01-10T05:05:42;15.90;;;10.48;;
4353;SDS011;11018;51.258;6.806;2024-01-10T05:08:07;18.30;;;10.90;;
4353;SDS011;11018;51.258;6.806;2024-01-10T05:10:33;16.67;;;10.98;;
4353;SDS011;11018;51.258;6.806;2024-01-10T05:12:58;16.58;;;10.60;;
4353;SDS011;11018;51.258;6.806;2024-01-10T05:15:24;15.60;;;10.30;;
4353;SDS011;11018;51.258;6.806;2024-01-10T05:17:50;15.48;;;10.90;;
4353;SDS011;11018;51.258;6.806;2024-01-10T05:20:15;16.63;;;10.50;;
4353;SDS011;11018;51.258;6.806;2024-01-10T05:22:41;20.30;;;12.70;;
4353;SDS011;11018;51.258;6.806;2024-01-10T05:25:07;18.90;;;12.10;;
4353;SDS011;11018;51.258;6.806;2024-01-10T05:27:33;20.13;;;11.20;;
4353;SDS011;11018;51.258;6.806;2024-01-10T05:29:59;18.45;;;10.70;;
4353;SDS011;11018;51.258;6.806;2024-01-10T05:32:24;18.73;;;11.43;;
4353;SDS011;11018;51.258;6.806;2024-01-10T05:34:51;19.70;;;11.40;;
4353;SDS011;11018;51.258;6.806;2024-01-10T05:37:17;17.48;;;10.77;;
4353;SDS011;11018;51.258;6.806;2024-01-10T05:39:42;17.67;;;11.25;;
4353;SDS011;11018;51.258;6.806;2024-01-10T05:42:08;19.13;;;11.65;;
4353;SDS011;11018;51.258;6.806;2024-01-10T05:44:34;17.33;;;11.33;;
4353;SDS011;11018;51.258;6.806;2024-01-10T05:46:59;18.65;;;11.98;;
4353;SDS011;11018;51.258;6.806;2024-01-10T05:49:25;17.27;;;11.10;;
4353;SDS011;11018;51.258;6.806;2024-01-10T05:51:51;18.45;;;12.07;;
4353;SDS011;11018;51.258;6.806;2024-01-10T05:54:16;19.90;;;11.80;;
4353;SDS011;11018;51.258;6.806;2024-01-10T05:56:43;23.95;;;14.30;;
4353;SDS011;11018;51.258;6.806;2024-01-10T05:59:08;18.80;;;12.50;;
4353;SDS011;11018;51.258;6.806;2024-01-10T06:01:36;18.50;;;11.88;;
4353;SDS011;11018;51.258;6.806;2024-01-10T06:04:03;19.33;;;12.48;;
4353;SDS011;11018;51.258;6.806;2024-01-10T06:06:29;19.15;;;11.50;;
4353;SDS011;11018;51.258;6.806;2024-01-10T06:08:55;18.70;;;11.77;;
4353;SDS011;11018;51.258;6.806;2024-01-10T06:11:20;18.52;;;11.63;;
4353;SDS011;11018;51.258;6.806;2024-01-10T06:13:46;20.00;;;11.88;;
4353;SDS011;11018;51.258;6.806;2024-01-10T06:16:11;20.13;;;11.93;;
4353;SDS011;11018;51.258;6.806;2024-01-10T06:18:38;19.90;;;11.97;;
4353;SDS011;11018;51.258;6.806;2024-01-10T06:21:04;20.02;;;12.13;;
4353;SDS011;11018;51.258;6.806;2024-01-10T06:23:30;21.50;;;12.20;;
4353;SDS011;11018;51.258;6.806;2024-01-10T06:25:55;23.70;;;12.40;;
4353;SDS011;11018;51.258;6.806;2024-01-10T06:28:21;19.52;;;11.60;;
4353;SDS011;11018;51.258;6.806;2024-01-10T06:30:48;19.58;;;12.20;;
4353;SDS011;11018;51.258;6.806;2024-01-10T06:33:14;21.10;;;12.45;;
4353;SDS011;11018;51.258;6.806;2024-01-10T06:35:40;21.77;;;12.77;;
4353;SDS011;11018;51.258;6.806;2024-01-10T06:38:08;44.40;;;25.95;;
4353;SDS011;11018;51.258;6.806;2024-01-10T06:40:34;25.63;;;15.15;;
4353;SDS011;11018;51.258;6.806;2024-01-10T06:43:00;21.00;;;13.10;;
4353;SDS011;11018;51.258;6.806;2024-01-10T06:45:26;20.23;;;12.63;;
4353;SDS011;11018;51.258;6.806;2024-01-10T06:47:51;24.27;;;13.50;;
4353;SDS011;11018;51.258;6.806;2024-01-10T06:50:17;23.45;;;12.85;;
4353;SDS011;11018;51.258;6.806;2024-01-10T06:52:44;19.55;;;12.10;;
4353;SDS011;11018;51.258;6.806;2024-01-10T06:55:10;21.83;;;13.83;;
4353;SDS011;11018;51.258;6.806;2024-01-10T06:57:36;21.63;;;13.60;;
4353;SDS011;11018;51.258;6.806;2024-01-10T07:00:01;22.10;;;14.07;;
4353;SDS011;11018;51.258;6.806;2024-01-10T07:02:31;24.50;;;14.30;;
4353;SDS011;11018;51.258;6.806;2024-01-10T07:04:57;24.75;;;13.70;;
4353;SDS011;11018;51.258;6.806;2024-01-10T07:07:23;23.10;;;14.23;;
4353;SDS011;11018;51.258;6.806;2024-01-10T07:09:48;20.92;;;13.93;;
4353;SDS011;11018;51.258;6.806;2024-01-10T07:12:14;24.17;;;14.27;;
4353;SDS011;11018;51.258;6.806;2024-01-10T07:14:39;26.30;;;16.10;;
4353;SDS011;11018;51.258;6.806;2024-01-10T07:17:05;25.23;;;14.15;;
4353;SDS011;11018;51.258;6.806;2024-01-10T07:19:31;20.30;;;12.73;;
4353;SDS011;11018;51.258;6.806;2024-01-10T07:21:57;22.20;;;13.37;;
4353;SDS011;11018;51.258;6.806;2024-01-10T07:24:22;23.50;;;13.50;;
4353;SDS011;11018;51.258;6.806;2024-01-10T07:26:48;21.25;;;13.40;;
4353;SDS011;11018;51.258;6.806;2024-01-10T07:29:13;22.67;;;14.70;;
4353;SDS011;11018;51.258;6.806;2024-01-10T07:31:39;22.33;;;14.20;;
4353;SDS011;11018;51.258;6.806;2024-01-10T07:34:05;22.70;;;13.87;;
4353;SDS011;11018;51.258;6.806;2024-01-10T07:36:31;23.85;;;14.80;;
4353;SDS011;11018;51.258;6.806;2024-01-10T07:38:58;23.95;;;14.90;;
4353;SDS011;11018;51.258;6.806;2024-01-10T07:41:27;22.23;;;14.00;;
4353;SDS011;11018;51.258;6.806;2024-01-10T07:43:52;24.87;;;14.27;;
4353;SDS011;11018;51.258;6.806;2024-01-10T07:46:18;24.27;;;13.70;;
4353;SDS011;11018;51.258;6.806;2024-01-10T07:48:44;24.95;;;13.90;;
4353;SDS011;11018;51.258;6.806;2024-01-10T07:51:09;24.27;;;13.80;;
4353;SDS011;11018;51.258;6.806;2024-01-10T07:53:35;22.73;;;14.13;;
4353;SDS011;11018;51.258;6.806;2024-01-10T07:56:04;23.67;;;14.00;;
4353;SDS011;11018;51.258;6.806;2024-01-10T07:58:30;23.80;;;12.75;;
4353;SDS011;11018;51.258;6.806;2024-01-10T08:00:55;24.45;;;14.00;;
4353;SDS011;11018;51.258;6.806;2024-01-10T08:03:21;18.85;;;12.10;;
4353;SDS011;11018;51.258;6.806;2024-01-10T08:05:46;22.23;;;13.30;;
4353;SDS011;11018;51.258;6.806;2024-01-10T08:08:14;21.10;;;12.60;;
4353;SDS011;11018;51.258;6.806;2024-01-10T08:10:41;23.58;;;14.05;;
4353;SDS011;11018;51.258;6.806;2024-01-10T08:13:07;25.00;;;14.15;;
4353;SDS011;11018;51.258;6.806;2024-01-10T08:15:33;23.60;;;13.37;;
4353;SDS011;11018;51.258;6.806;2024-01-10T08:17:59;24.63;;;13.63;;
4353;SDS011;11018;51.258;6.806;2024-01-10T08:20:28;20.98;;;13.05;;
4353;SDS011;11018;51.258;6.806;2024-01-10T08:22:53;26.03;;;13.87;;
4353;SDS011;11018;51.258;6.806;2024-01-10T08:25:19;23.88;;;13.77;;
4353;SDS011;11018;51.258;6.806;2024-01-10T08:27:44;24.30;;;13.97;;
4353;SDS011;11018;51.258;6.806;2024-01-10T08:30:10;22.90;;;13.37;;
4353;SDS011;11018;51.258;6.806;2024-01-10T08:32:36;25.17;;;13.77;;
4353;SDS011;11018;51.258;6.806;2024-01-10T08:35:05;25.15;;;13.50;;
4353;SDS011;11018;51.258;6.806;2024-01-10T08:37:32;23.08;;;13.43;;
4353;SDS011;11018;51.258;6.806;2024-01-10T08:39:58;24.23;;;13.00;;
4353;SDS011;11018;51.258;6.806;2024-01-10T08:42:25;25.55;;;14.30;;
4353;SDS011;11018;51.258;6.806;2024-01-10T08:44:50;22.00;;;13.80;;
4353;SDS011;11018;51.258;6.806;2024-01-10T08:47:16;26.73;;;14.50;;
4353;SDS011;11018;51.258;6.806;2024-01-10T08:49:41;27.08;;;13.50;;
4353;SDS011;11018;51.258;6.806;2024-01-10T08:52:07;21.87;;;12.80;;
4353;SDS011;11018;51.258;6.806;2024-01-10T08:54:33;23.05;;;13.70;;
4353;SDS011;11018;51.258;6.806;2024-01-10T08:56:59;26.92;;;13.73;;
4353;SDS011;11018;51.258;6.806;2024-01-10T08:59:25;24.05;;;12.65;;
4353;SDS011;11018;51.258;6.806;2024-01-10T09:01:52;21.40;;;13.43;;
4353;SDS011;11018;51.258;6.806;2024-01-10T09:04:18;26.45;;;13.60;;
4353;SDS011;11018;51.258;6.806;2024-01-10T09:06:44;25.30;;;13.73;;
4353;SDS011;11018;51.258;6.806;2024-01-10T09:09:10;22.80;;;12.97;;
4353;SDS011;11018;51.258;6.806;2024-01-10T09:11:38;25.23;;;14.20;;
4353;SDS011;11018;51.258;6.806;2024-01-10T09:14:03;27.48;;;13.68;;
4353;SDS011;11018;51.258;6.806;2024-01-10T09:16:29;30.97;;;14.03;;
4353;SDS011;11018;51.258;6.806;2024-01-10T09:18:54;23.27;;;13.47;;
4353;SDS011;11018;51.258;6.806;2024-01-10T09:21:22;24.03;;;14.10;;
4353;SDS011;11018;51.258;6.806;2024-01-10T09:23:48;26.65;;;14.40;;
4353;SDS011;11018;51.258;6.806;2024-01-10T09:26:16;22.83;;;13.13;;
4353;SDS011;11018;51.258;6.806;2024-01-10T09:28:44;25.85;;;14.20;;
4353;SDS011;11018;51.258;6.806;2024-01-10T09:31:10;34.40;;;19.00;;
4353;SDS011;11018;51.258;6.806;2024-01-10T09:33:35;34.55;;;18.45;;
4353;SDS011;11018;51.258;6.806;2024-01-10T09:36:01;28.13;;;17.00;;
4353;SDS011;11018;51.258;6.806;2024-01-10T09:38:27;28.37;;;15.70;;
4353;SDS011;11018;51.258;6.806;2024-01-10T09:40:53;24.00;;;14.47;;
4353;SDS011;11018;51.258;6.806;2024-01-10T09:43:26;25.45;;;14.43;;
4353;SDS011;11018;51.258;6.806;2024-01-10T09:45:52;23.40;;;13.32;;
4353;SDS011;11018;51.258;6.806;2024-01-10T09:48:19;22.77;;;13.60;;
4353;SDS011;11018;51.258;6.806;2024-01-10T09:50:45;23.70;;;13.67;;
4353;SDS011;11018;51.258;6.806;2024-01-10T09:53:18;23.90;;;14.23;;
4353;SDS011;11018;51.258;6.806;2024-01-10T09:55:48;27.45;;;14.18;;
4353;SDS011;11018;51.258;6.806;2024-01-10T09:58:14;26.90;;;14.60;;
4353;SDS011;11018;51.258;6.806;2024-01-10T10:00:39;23.00;;;13.27;;
4353;SDS011;11018;51.258;6.806;2024-01-10T10:03:07;25.35;;;14.27;;
4353;SDS011;11018;51.258;6.806;2024-01-10T10:05:37;26.75;;;15.27;;
4353;SDS011;11018;51.258;6.806;2024-01-10T10:08:03;29.40;;;14.97;;
4353;SDS011;11018;51.258;6.806;2024-01-10T10:10:31;27.15;;;14.60;;
4353;SDS011;11018;51.258;6.806;2024-01-10T10:12:57;24.70;;;13.00;;
4353;SDS011;11018;51.258;6.806;2024-01-10T10:15:24;25.73;;;13.87;;
4353;SDS011;11018;51.258;6.806;2024-01-10T10:17:51;27.50;;;14.30;;
4353;SDS011;11018;51.258;6.806;2024-01-10T10:20:22;25.95;;;14.27;;
4353;SDS011;11018;51.258;6.806;2024-01-10T10:25:38;27.15;;;14.18;;
4353;SDS011;11018;51.258;6.806;2024-01-10T10:28:08;23.52;;;13.52;;
4353;SDS011;11018;51.258;6.806;2024-01-10T10:30:34;23.20;;;13.80;;
4353;SDS011;11018;51.258;6.806;2024-01-10T10:33:03;25.38;;;13.77;;
4353;SDS011;11018;51.258;6.806;2024-01-10T10:35:32;24.42;;;14.30;;
4353;SDS011;11018;51.258;6.806;2024-01-10T10:37:57;26.93;;;14.60;;
4353;SDS011;11018;51.258;6.806;2024-01-10T10:40:23;31.30;;;15.65;;
4353;SDS011;11018;51.258;6.806;2024-01-10T10:42:53;32.43;;;15.07;;
4353;SDS011;11018;51.258;6.806;2024-01-10T10:45:20;25.13;;;13.60;;
4353;SDS011;11018;51.258;6.806;2024-01-10T10:47:50;27.40;;;14.20;;
4353;SDS011;11018;51.258;6.806;2024-01-10T10:50:26;24.20;;;14.15;;
4353;SDS011;11018;51.258;6.806;2024-01-10T10:52:54;28.08;;;14.05;;
4353;SDS011;11018;51.258;6.806;2024-01-10T10:55:21;22.50;;;13.15;;
4353;SDS011;11018;51.258;6.806;2024-01-10T10:57:48;26.17;;;13.98;;
4353;SDS011;11018;51.258;6.806;2024-01-10T11:00:17;27.20;;;14.30;;
4353;SDS011;11018;51.258;6.806;2024-01-10T11:02:45;27.15;;;14.35;;
4353;SDS011;11018;51.258;6.806;2024-01-10T11:05:11;22.13;;;12.90;;
4353;SDS011;11018;51.258;6.806;2024-01-10T11:07:41;25.02;;;13.85;;
4353;SDS011;11018;51.258;6.806;2024-01-10T11:10:13;24.88;;;13.35;;
4353;SDS011;11018;51.258;6.806;2024-01-10T11:12:54;24.10;;;13.77;;
4353;SDS011;11018;51.258;6.806;2024-01-10T11:18:22;26.45;;;13.85;;
4353;SDS011;11018;51.258;6.806;2024-01-10T11:21:22;26.75;;;14.30;;
4353;SDS011;11018;51.258;6.806;2024-01-10T11:23:51;24.05;;;13.73;;
4353;SDS011;11018;51.258;6.806;2024-01-10T11:26:21;25.65;;;13.95;;
4353;SDS011;11018;51.258;6.806;2024-01-10T11:28:47;28.07;;;14.53;;
4353;SDS011;11018;51.258;6.806;2024-01-10T11:31:13;26.20;;;13.52;;
4353;SDS011;11018;51.258;6.806;2024-01-10T11:33:43;23.83;;;13.00;;
4353;SDS011;11018;51.258;6.806;2024-01-10T11:38:42;29.95;;;13.75;;
4353;SDS011;11018;51.258;6.806;2024-01-10T11:41:12;24.75;;;13.75;;
4353;SDS011;11018;51.258;6.806;2024-01-10T11:43:44;26.67;;;13.98;;
4353;SDS011;11018;51.258;6.806;2024-01-10T11:46:10;26.97;;;14.03;;
4353;SDS011;11018;51.258;6.806;2024-01-10T11:48:37;26.77;;;14.25;;
4353;SDS011;11018;51.258;6.806;2024-01-10T11:51:03;28.38;;;13.57;;
4353;SDS011;11018;51.258;6.806;2024-01-10T11:53:42;28.00;;;14.10;;
4353;SDS011;11018;51.258;6.806;2024-01-10T11:56:11;24.13;;;13.93;;
4353;SDS011;11018;51.258;6.806;2024-01-10T12:01:41;20.83;;;12.48;;
4353;SDS011;11018;51.258;6.806;2024-01-10T12:04:07;27.98;;;14.07;;
4353;SDS011;11018;51.258;6.806;2024-01-10T12:06:34;27.45;;;13.30;;
4353;SDS011;11018;51.258;6.806;2024-01-10T12:09:01;26.58;;;12.55;;
4353;SDS011;11018;51.258;6.806;2024-01-10T12:11:33;26.92;;;12.77;;
4353;SDS011;11018;51.258;6.806;2024-01-10T12:14:04;31.45;;;16.05;;
4353;SDS011;11018;51.258;6.806;2024-01-10T12:16:30;22.90;;;12.77;;
4353;SDS011;11018;51.258;6.806;2024-01-10T12:18:57;22.00;;;12.95;;
4353;SDS011;11018;51.258;6.806;2024-01-10T12:21:23;23.25;;;13.52;;
4353;SDS011;11018;51.258;6.806;2024-01-10T12:23:49;25.00;;;12.00;;
4353;SDS011;11018;51.258;6.806;2024-01-10T12:26:16;21.65;;;11.60;;
4353;SDS011;11018;51.258;6.806;2024-01-10T12:28:52;23.95;;;13.50;;
4353;SDS011;11018;51.258;6.806;2024-01-10T12:31:19;23.40;;;12.17;;
4353;SDS011;11018;51.258;6.806;2024-01-10T12:33:44;21.42;;;12.18;;
4353;SDS011;11018;51.258;6.806;2024-01-10T12:36:10;20.90;;;11.57;;
4353;SDS011;11018;51.258;6.806;2024-01-10T12:38:36;21.10;;;11.90;;
4353;SDS011;11018;51.258;6.806;2024-01-10T12:41:03;21.88;;;12.27;;
4353;SDS011;11018;51.258;6.806;2024-01-10T12:43:30;21.83;;;11.52;;
4353;SDS011;11018;51.258;6.806;2024-01-10T12:46:05;22.50;;;11.73;;
4353;SDS011;11018;51.258;6.806;2024-01-10T12:48:32;29.90;;;15.40;;
4353;SDS011;11018;51.258;6.806;2024-01-10T12:51:06;33.03;;;17.55;;
4353;SDS011;11018;51.258;6.806;2024-01-10T12:53:35;32.67;;;17.17;;
4353;SDS011;11018;51.258;6.806;2024-01-10T12:56:02;37.92;;;21.48;;
4353;SDS011;11018;51.258;6.806;2024-01-10T12:58:29;31.00;;;16.50;;
4353;SDS011;11018;51.258;6.806;2024-01-10T13:00:55;30.02;;;15.70;;
4353;SDS011;11018;51.258;6.806;2024-01-10T13:03:21;32.80;;;17.27;;
4353;SDS011;11018;51.258;6.806;2024-01-10T13:05:48;30.63;;;16.20;;
4353;SDS011;11018;51.258;6.806;2024-01-10T13:08:14;32.17;;;17.40;;
4353;SDS011;11018;51.258;6.806;2024-01-10T13:10:39;26.30;;;16.35;;
4353;SDS011;11018;51.258;6.806;2024-01-10T13:13:06;29.80;;;16.30;;
4353;SDS011;11018;51.258;6.806;2024-01-10T13:15:31;27.50;;;16.47;;
4353;SDS011;11018;51.258;6.806;2024-01-10T13:17:57;28.07;;;15.73;;
4353;SDS011;11018;51.258;6.806;2024-01-10T13:20:23;28.30;;;16.20;;
4353;SDS011;11018;51.258;6.806;2024-01-10T13:22:50;31.02;;;17.10;;
4353;SDS011;11018;51.258;6.806;2024-01-10T13:25:16;30.48;;;17.75;;
4353;SDS011;11018;51.258;6.806;2024-01-10T13:27:42;31.73;;;17.30;;
4353;SDS011;11018;51.258;6.806;2024-01-10T13:30:08;33.70;;;18.10;;
4353;SDS011;11018;51.258;6.806;2024-01-10T13:32:36;33.47;;;17.90;;
4353;SDS011;11018;51.258;6.806;2024-01-10T13:35:02;35.13;;;17.50;;
4353;SDS011;11018;51.258;6.806;2024-01-10T13:37:28;30.35;;;17.80;;
4353;SDS011;11018;51.258;6.806;2024-01-10T13:39:56;36.40;;;18.48;;
4353;SDS011;11018;51.258;6.806;2024-01-10T13:42:21;31.70;;;17.50;;
4353;SDS011;11018;51.258;6.806;2024-01-10T13:44:48;32.37;;;18.97;;
4353;SDS011;11018;51.258;6.806;2024-01-10T13:47:14;32.35;;;17.48;;
4353;SDS011;11018;51.258;6.806;2024-01-10T13:49:40;32.15;;;17.67;;
4353;SDS011;11018;51.258;6.806;2024-01-10T13:52:06;32.77;;;17.60;;
4353;SDS011;11018;51.258;6.806;2024-01-10T13:54:32;33.75;;;17.60;;
4353;SDS011;11018;51.258;6.806;2024-01-10T13:56:57;33.05;;;17.80;;
4353;SDS011;11018;51.258;6.806;2024-01-10T13:59:23;34.27;;;17.63;;
4353;SDS011;11018;51.258;6.806;2024-01-10T14:01:49;33.60;;;17.10;;
4353;SDS011;11018;51.258;6.806;2024-01-10T14:04:14;34.25;;;17.50;;
4353;SDS011;11018;51.258;6.806;2024-01-10T14:06:40;36.95;;;18.30;;
4353;SDS011;11018;51.258;6.806;2024-01-10T14:09:05;32.78;;;17.98;;
4353;SDS011;11018;51.258;6.806;2024-01-10T14:11:34;33.03;;;17.63;;
4353;SDS011;11018;51.258;6.806;2024-01-10T14:14:00;34.03;;;17.40;;
4353;SDS011;11018;51.258;6.806;2024-01-10T14:16:26;31.67;;;18.08;;
4353;SDS011;11018;51.258;6.806;2024-01-10T14:18:52;33.40;;;18.42;;
4353;SDS011;11018;51.258;6.806;2024-01-10T14:21:21;35.10;;;18.23;;
4353;SDS011;11018;51.258;6.806;2024-01-10T14:23:46;33.67;;;18.45;;
4353;SDS011;11018;51.258;6.806;2024-01-10T14:26:13;37.60;;;19.13;;
4353;SDS011;11018;51.258;6.806;2024-01-10T14:28:39;38.35;;;20.25;;
4353;SDS011;11018;51.258;6.806;2024-01-10T14:31:04;34.37;;;20.00;;
4353;SDS011;11018;51.258;6.806;2024-01-10T14:33:30;37.70;;;19.42;;
4353;SDS011;11018;51.258;6.806;2024-01-10T14:35:56;37.20;;;18.98;;
4353;SDS011;11018;51.258;6.806;2024-01-10T14:38:21;33.50;;;19.70;;
4353;SDS011;11018;51.258;6.806;2024-01-10T14:40:47;36.17;;;18.83;;
4353;SDS011;11018;51.258;6.806;2024-01-10T14:43:13;39.67;;;20.67;;